createdAt,value
2022-09-01T00:00:49.302Z,19.13
2022-09-01T00:04:32.172Z,20.40
2022-09-01T00:08:18.090Z,20.10
2022-09-01T00:12:02.438Z,23.67
2022-09-01T00:15:45.417Z,19.60
2022-09-01T00:19:30.093Z,17.97
2022-09-01T00:23:12.859Z,19.67
2022-09-01T00:26:56.294Z,21.60
2022-09-01T00:30:39.500Z,19.70
2022-09-01T00:34:23.071Z,22.60
2022-09-01T00:38:07.389Z,25.10
2022-09-01T00:41:51.287Z,21.53
2022-09-01T00:45:34.042Z,20.77
2022-09-01T00:49:20.035Z,23.30
2022-09-01T00:53:02.968Z,24.93
2022-09-01T00:56:48.288Z,24.33
2022-09-01T01:00:42.560Z,25.30
2022-09-01T01:04:26.049Z,24.90
2022-09-01T01:08:12.049Z,25.63
2022-09-01T01:11:59.477Z,25.07
2022-09-01T01:15:43.926Z,25.97
2022-09-01T01:19:52.809Z,24.90
2022-09-01T01:23:40.511Z,28.07
2022-09-01T01:27:24.636Z,26.67
2022-09-01T01:31:12.666Z,25.57
2022-09-01T01:34:56.215Z,27.17
2022-09-01T01:38:39.759Z,29.03
2022-09-01T01:42:26.883Z,27.63
2022-09-01T01:46:11.477Z,24.93
2022-09-01T01:49:54.310Z,27.87
2022-09-01T01:53:37.335Z,23.77
2022-09-01T01:57:20.026Z,25.27
2022-09-01T02:01:04.282Z,25.80
2022-09-01T02:04:47.049Z,25.97
2022-09-01T02:08:29.787Z,24.90
2022-09-01T02:12:15.014Z,22.43
2022-09-01T02:16:00.614Z,25.17
2022-09-01T02:19:44.742Z,22.27
2022-09-01T02:23:27.587Z,24.80
2022-09-01T02:27:10.795Z,23.30
2022-09-01T02:30:55.064Z,21.90
2022-09-01T02:34:39.425Z,23.30
2022-09-01T02:38:26.272Z,21.90
2022-09-01T02:42:11.716Z,21.50
2022-09-01T02:45:55.598Z,20.13
2022-09-01T02:49:42.477Z,21.00
2022-09-01T02:53:26.631Z,19.03
2022-09-01T02:57:09.398Z,19.70
2022-09-01T03:00:54.110Z,20.77
2022-09-01T03:04:37.412Z,19.60
2022-09-01T03:08:20.944Z,19.33
2022-09-01T03:12:07.236Z,19.13
2022-09-01T03:15:50.240Z,20.10
2022-09-01T03:19:40.523Z,18.70
2022-09-01T03:23:25.261Z,21.93
2022-09-01T03:27:11.733Z,19.57
2022-09-01T03:30:56.885Z,22.37
2022-09-01T03:34:39.729Z,21.47
2022-09-01T03:38:24.524Z,21.07
2022-09-01T03:42:12.085Z,19.20
2022-09-01T03:45:56.316Z,18.53
2022-09-01T03:49:39.417Z,19.27
2022-09-01T03:53:25.317Z,20.53
2022-09-01T03:57:10.088Z,18.47
2022-09-01T04:00:56.466Z,17.07
2022-09-01T04:04:39.327Z,17.90
2022-09-01T04:08:25.433Z,17.13
2022-09-01T04:12:13.670Z,19.23
2022-09-01T04:15:56.467Z,16.97
2022-09-01T04:19:39.745Z,18.77
2022-09-01T04:23:27.222Z,16.57
2022-09-01T04:27:11.372Z,17.40
2022-09-01T04:30:56.864Z,16.57
2022-09-01T04:34:41.759Z,16.17
2022-09-01T04:38:25.649Z,15.87
2022-09-01T04:42:09.244Z,15.97
2022-09-01T04:45:53.788Z,17.83
2022-09-01T04:49:37.588Z,21.23
2022-09-01T04:53:20.523Z,19.70
2022-09-01T04:57:03.264Z,24.03
2022-09-01T05:00:48.235Z,21.97
2022-09-01T05:04:34.184Z,23.70
2022-09-01T05:08:23.286Z,24.73
2022-09-01T05:12:15.120Z,24.77
2022-09-01T05:16:03.653Z,23.20
2022-09-01T05:19:50.593Z,27.10
2022-09-01T05:23:33.425Z,25.60
2022-09-01T05:27:19.190Z,27.60
2022-09-01T05:31:02.162Z,25.40
2022-09-01T05:34:46.177Z,24.33
2022-09-01T05:38:31.353Z,25.93
2022-09-01T05:42:14.104Z,24.87
2022-09-01T05:46:06.688Z,22.47
2022-09-01T05:49:50.848Z,21.93
2022-09-01T05:53:35.165Z,23.87
2022-09-01T05:57:33.826Z,22.30
2022-09-01T06:01:22.158Z,22.23
2022-09-01T06:05:05.572Z,20.33
2022-09-01T06:08:49.953Z,19.90
2022-09-01T06:12:34.031Z,38.10
2022-09-01T06:16:18.047Z,19.73
2022-09-01T06:20:00.936Z,20.00
2022-09-01T06:23:43.992Z,18.40
2022-09-01T06:27:28.132Z,18.43
2022-09-01T06:31:12.161Z,19.67
2022-09-01T06:34:58.019Z,16.23
2022-09-01T06:38:41.246Z,16.83
2022-09-01T06:42:24.669Z,14.23
2022-09-01T06:46:10.587Z,15.53
2022-09-01T06:49:57.843Z,13.50
2022-09-01T06:53:41.180Z,14.80
2022-09-01T07:01:30.338Z,14.23
2022-09-01T07:09:47.177Z,14.20
2022-09-01T07:13:25.606Z,13.87
2022-09-01T07:17:26.885Z,12.70
2022-09-01T07:21:39.342Z,11.33
2022-09-01T07:29:15.727Z,10.60
2022-09-01T07:33:41.715Z,11.53
2022-09-01T07:38:47.838Z,9.37
2022-09-01T07:45:26.143Z,11.03
2022-09-01T07:53:18.338Z,11.57
2022-09-01T07:57:01.909Z,10.03
2022-09-01T08:00:46.260Z,8.93
2022-09-01T08:04:31.644Z,9.07
2022-09-01T08:08:26.238Z,9.23
2022-09-01T08:12:11.391Z,9.83
2022-09-01T08:16:17.106Z,9.57
2022-09-01T08:19:58.496Z,9.70
2022-09-01T08:23:41.592Z,8.53
2022-09-01T08:27:27.312Z,9.87
2022-09-01T08:31:11.761Z,9.43
2022-09-01T08:34:54.798Z,8.40
2022-09-01T08:38:39.331Z,7.97
2022-09-01T08:42:31.940Z,8.77
2022-09-01T08:46:21.144Z,8.63
2022-09-01T08:50:06.368Z,8.73
2022-09-01T08:53:56.292Z,8.77
2022-09-01T08:57:41.978Z,7.30
2022-09-01T09:01:32.472Z,8.17
2022-09-01T09:05:27.996Z,7.53
2022-09-01T09:09:12.407Z,6.45
2022-09-01T09:13:04.896Z,7.43
2022-09-01T09:16:51.447Z,8.17
2022-09-01T09:20:36.837Z,9.03
2022-09-01T09:24:29.188Z,11.27
2022-09-01T09:28:22.423Z,7.70
2022-09-01T09:32:22.607Z,7.30
2022-09-01T09:36:19.322Z,7.83
2022-09-01T09:40:16.004Z,8.27
2022-09-01T09:44:04.515Z,8.13
2022-09-01T09:47:47.782Z,8.70
2022-09-01T09:51:30.546Z,8.13
2022-09-01T09:55:24.204Z,7.80
2022-09-01T09:59:29.324Z,8.57
2022-09-01T10:03:36.363Z,9.20
2022-09-01T10:07:33.097Z,9.20
2022-09-01T10:11:35.340Z,11.17
2022-09-01T10:15:20.380Z,11.07
2022-09-01T10:19:03.457Z,9.60
2022-09-01T10:22:48.377Z,11.13
2022-09-01T10:26:37.445Z,8.00
2022-09-01T10:30:21.418Z,7.30
2022-09-01T10:34:06.405Z,7.73
2022-09-01T10:37:49.284Z,8.60
2022-09-01T10:42:00.050Z,7.47
2022-09-01T10:45:44.477Z,7.30
2022-09-01T10:50:07.670Z,9.00
2022-09-01T10:53:53.930Z,5.47
2022-09-01T10:59:31.062Z,6.20
2022-09-01T11:02:23.506Z,6.03
2022-09-01T11:06:13.354Z,6.63
2022-09-01T11:10:31.434Z,4.93
2022-09-01T11:14:23.912Z,4.73
2022-09-01T11:18:11.828Z,6.40
2022-09-01T11:22:07.028Z,4.10
2022-09-01T11:26:18.981Z,5.25
2022-09-01T11:29:57.211Z,6.87
2022-09-01T11:33:47.773Z,4.45
2022-09-01T11:37:30.958Z,4.35
2022-09-01T11:41:23.980Z,4.57
2022-09-01T11:45:15.487Z,5.22
2022-09-01T11:49:08.050Z,4.15
2022-09-01T11:52:55.930Z,3.10
2022-09-01T11:56:38.781Z,4.03
2022-09-01T12:00:30.683Z,3.25
2022-09-01T12:04:23.253Z,3.45
2022-09-01T12:08:15.396Z,3.85
2022-09-01T12:11:58.636Z,3.47
2022-09-01T12:16:07.078Z,2.85
2022-09-01T12:19:45.958Z,2.83
2022-09-01T12:23:33.355Z,4.13
2022-09-01T12:27:16.388Z,2.95
2022-09-01T12:31:01.661Z,6.60
2022-09-01T12:34:46.549Z,3.97
2022-09-01T12:38:31.081Z,3.50
2022-09-01T12:42:27.205Z,3.40
2022-09-01T12:46:11.402Z,3.88
2022-09-01T12:49:55.755Z,3.55
2022-09-01T12:53:38.601Z,3.05
2022-09-01T12:57:28.737Z,2.63
2022-09-01T13:01:25.915Z,2.75
2022-09-01T13:05:32.678Z,4.90
2022-09-01T13:09:18.074Z,4.78
2022-09-01T13:13:01.968Z,5.25
2022-09-01T13:16:46.479Z,4.63
2022-09-01T13:20:29.287Z,5.68
2022-09-01T13:24:12.101Z,5.13
2022-09-01T13:27:55.577Z,5.47
2022-09-01T13:32:16.057Z,2.60
2022-09-01T13:35:43.724Z,4.20
2022-09-01T13:39:26.488Z,4.07
2022-09-01T13:43:09.303Z,4.22
2022-09-01T13:46:59.609Z,6.88
2022-09-01T13:54:47.793Z,2.83
2022-09-01T13:58:30.616Z,5.25
2022-09-01T14:02:13.441Z,2.33
2022-09-01T14:05:57.603Z,2.80
2022-09-01T14:09:40.702Z,6.47
2022-09-01T14:13:24.870Z,6.18
2022-09-01T14:17:07.775Z,10.80
2022-09-01T14:20:52.706Z,3.95
2022-09-01T14:24:40.964Z,3.10
2022-09-01T14:28:24.359Z,4.07
2022-09-01T14:32:07.916Z,6.50
2022-09-01T14:35:50.933Z,6.53
2022-09-01T14:39:33.874Z,7.10
2022-09-01T14:43:20.646Z,3.70
2022-09-01T14:47:03.416Z,3.53
2022-09-01T14:50:51.049Z,2.40
2022-09-01T14:54:34.445Z,3.42
2022-09-01T14:58:18.527Z,3.90
2022-09-01T15:02:01.602Z,2.15
2022-09-01T15:05:44.350Z,2.20
2022-09-01T15:09:27.246Z,2.67
2022-09-01T15:13:14.720Z,5.18
2022-09-01T15:16:58.813Z,2.85
2022-09-01T15:20:48.752Z,4.57
2022-09-01T15:24:31.528Z,2.40
2022-09-01T15:28:14.855Z,1.88
2022-09-01T15:31:59.065Z,2.45
2022-09-01T15:35:42.039Z,2.10
2022-09-01T15:39:24.828Z,4.07
2022-09-01T15:43:21.312Z,6.50
2022-09-01T15:47:05.745Z,3.85
2022-09-01T15:50:48.567Z,5.88
2022-09-01T15:54:31.372Z,6.53
2022-09-01T15:58:16.825Z,4.03
2022-09-01T16:02:00.826Z,2.78
2022-09-01T16:05:44.988Z,3.03
2022-09-01T16:09:27.802Z,4.95
2022-09-01T16:13:13.026Z,3.42
2022-09-01T16:17:04.081Z,4.22
2022-09-01T16:20:56.428Z,2.72
2022-09-01T16:24:42.564Z,23.38
2022-09-01T16:28:28.435Z,21.90
2022-09-01T16:32:11.351Z,3.50
2022-09-01T16:36:11.578Z,6.25
2022-09-01T16:39:59.911Z,9.25
2022-09-01T16:43:49.532Z,4.40
2022-09-01T16:47:52.310Z,4.60
2022-09-01T16:51:40.465Z,4.55
2022-09-01T16:55:29.166Z,3.30
2022-09-01T16:59:22.137Z,3.60
2022-09-01T17:03:09.351Z,2.63
2022-09-01T17:07:08.437Z,9.00
2022-09-01T17:10:54.931Z,3.75
2022-09-01T17:14:42.092Z,3.88
2022-09-01T17:18:31.308Z,3.72
2022-09-01T17:22:16.181Z,4.45
2022-09-01T17:26:03.026Z,3.83
2022-09-01T17:29:48.038Z,4.00
2022-09-01T17:33:36.632Z,6.35
2022-09-01T17:37:29.118Z,4.95
2022-09-01T17:41:19.150Z,3.97
2022-09-01T17:45:13.014Z,2.70
2022-09-01T17:48:57.997Z,3.65
2022-09-01T17:52:52.586Z,3.50
2022-09-01T17:56:43.684Z,3.45
2022-09-01T18:00:28.964Z,2.85
2022-09-01T18:04:30.974Z,5.17
2022-09-01T18:08:29.423Z,5.53
2022-09-01T18:12:16.098Z,4.80
2022-09-01T18:16:00.680Z,3.03
2022-09-01T18:19:59.513Z,2.60
2022-09-01T18:23:45.020Z,3.73
2022-09-01T18:27:32.711Z,5.90
2022-09-01T18:31:27.579Z,2.87
2022-09-01T18:35:22.596Z,2.67
2022-09-01T18:39:10.525Z,3.37
2022-09-01T18:43:02.041Z,5.37
2022-09-01T18:46:49.665Z,3.50
2022-09-01T18:50:35.846Z,4.37
2022-09-01T18:54:23.639Z,4.60
2022-09-01T18:58:10.160Z,2.97
2022-09-01T19:01:55.744Z,2.47
2022-09-01T19:05:56.517Z,4.23
2022-09-01T19:09:43.647Z,5.82
2022-09-01T19:13:41.031Z,3.10
2022-09-01T19:18:02.496Z,2.77
2022-09-01T19:21:48.124Z,3.17
2022-09-01T19:25:37.530Z,3.57
2022-09-01T19:29:22.515Z,4.60
2022-09-01T19:33:06.819Z,2.10
2022-09-01T19:36:52.919Z,4.80
2022-09-01T19:40:38.934Z,2.83
2022-09-01T19:44:25.818Z,5.60
2022-09-01T19:48:15.084Z,4.73
2022-09-01T19:52:00.916Z,5.60
2022-09-01T19:55:48.860Z,3.43
2022-09-01T19:59:43.343Z,3.53
2022-09-01T20:03:28.705Z,3.90
2022-09-01T20:07:18.449Z,4.93
2022-09-01T20:11:07.595Z,2.80
2022-09-01T20:14:58.202Z,3.30
2022-09-01T20:18:47.173Z,3.17
2022-09-01T20:22:35.020Z,6.00
2022-09-01T20:26:23.323Z,4.33
2022-09-01T20:30:09.928Z,6.23
2022-09-01T20:33:59.509Z,2.70
2022-09-01T20:37:46.289Z,3.10
2022-09-01T20:41:39.391Z,2.97
2022-09-01T20:45:23.944Z,4.07
2022-09-01T20:49:06.672Z,2.80
2022-09-01T20:53:08.993Z,7.17
2022-09-01T20:56:59.586Z,3.20
2022-09-01T21:00:48.424Z,3.63
2022-09-01T21:04:38.583Z,4.57
2022-09-01T21:08:31.469Z,2.63
2022-09-01T21:12:25.768Z,4.87
2022-09-01T21:16:13.778Z,4.03
2022-09-01T21:20:04.737Z,2.87
2022-09-01T21:23:47.488Z,3.27
2022-09-01T21:27:37.001Z,5.43
2022-09-01T21:31:20.306Z,3.83
2022-09-01T21:35:03.845Z,5.03
2022-09-01T21:38:46.580Z,3.53
2022-09-01T21:42:33.311Z,4.50
2022-09-01T21:46:16.883Z,4.40
2022-09-01T21:49:59.631Z,3.67
2022-09-01T21:53:43.331Z,6.10
2022-09-01T21:57:26.056Z,6.50
2022-09-01T22:01:10.616Z,5.17
2022-09-01T22:04:57.277Z,8.00
2022-09-01T22:08:40.101Z,4.07
2022-09-01T22:12:24.646Z,4.10
2022-09-01T22:16:07.888Z,5.90
2022-09-01T22:19:54.085Z,3.73
2022-09-01T22:23:37.263Z,4.03
2022-09-01T22:27:20.068Z,2.87
2022-09-01T22:31:03.220Z,3.03
2022-09-01T22:34:45.997Z,4.33
2022-09-01T22:38:30.161Z,4.23
2022-09-01T22:42:12.890Z,3.60
2022-09-01T22:45:56.598Z,5.47
2022-09-01T22:49:39.432Z,6.07
2022-09-01T22:53:23.473Z,4.93
2022-09-01T22:57:07.657Z,4.27
2022-09-01T23:00:52.043Z,3.33
2022-09-01T23:04:35.352Z,3.47
2022-09-01T23:08:18.276Z,4.70
2022-09-01T23:12:01.020Z,4.10
2022-09-01T23:15:45.218Z,4.53
2022-09-01T23:19:27.969Z,3.47
2022-09-01T23:23:10.730Z,7.13
2022-09-01T23:26:53.474Z,3.97
2022-09-01T23:30:36.188Z,5.90
2022-09-01T23:34:20.345Z,4.23
2022-09-01T23:38:03.102Z,5.60
2022-09-01T23:41:46.032Z,7.60
2022-09-01T23:45:29.735Z,6.07
2022-09-01T23:49:20.627Z,3.90
2022-09-01T23:53:03.412Z,4.33
2022-09-01T23:56:46.402Z,4.20
